Time;durP1;ratioP1;P1;durP2;ratioP2;P2;SDS_P1;SDS_P2;PMS_P1;PMS_P2;Temp;Humidity;BMP_temperature;BMP_pressure;BME280_temperature;BME280_humidity;BME280_pressure;Samples;Min_cycle;Max_cycle;Signal;HPM_P1;HPM_P2
2023/08/13 00:01:39;;;;;;;0.00;0.00;;;18.00;83.60;;;;;;5027465;28;20482;-70
2023/08/13 00:04:05;;;;;;;0.10;0.10;;;18.00;83.70;;;;;;5027921;28;20414;-70
2023/08/13 00:06:30;;;;;;;0.00;0.00;;;18.00;83.90;;;;;;5027887;28;20179;-70
2023/08/13 00:08:56;;;;;;;0.38;0.38;;;18.00;83.90;;;;;;5031129;28;20086;-70
2023/08/13 00:11:22;;;;;;;0.15;0.15;;;18.00;83.80;;;;;;5041973;28;20037;-70
2023/08/13 00:13:47;;;;;;;0.00;0.00;;;17.90;83.70;;;;;;5038567;28;20064;-70
2023/08/13 00:16:13;;;;;;;0.00;0.00;;;18.00;83.90;;;;;;5046880;28;20044;-70
2023/08/13 00:18:38;;;;;;;0.50;0.50;;;17.90;83.90;;;;;;5044028;28;20051;-70
2023/08/13 00:21:04;;;;;;;0.00;0.00;;;17.90;83.90;;;;;;5046203;28;20132;-70
2023/08/13 00:23:29;;;;;;;0.05;0.05;;;17.90;84.00;;;;;;5046357;28;20048;-70
2023/08/13 00:25:55;;;;;;;0.00;0.00;;;17.90;83.70;;;;;;5046560;28;20053;-70
2023/08/13 00:28:21;;;;;;;0.00;0.00;;;17.90;84.10;;;;;;5046295;28;20131;-70
2023/08/13 00:30:46;;;;;;;0.00;0.00;;;17.90;83.90;;;;;;5046907;28;20041;-70
2023/08/13 00:33:12;;;;;;;4.95;0.73;;;17.90;83.90;;;;;;5046728;28;20045;-70
2023/08/13 00:35:37;;;;;;;0.00;0.00;;;17.80;84.00;;;;;;5046176;28;20493;-70
2023/08/13 00:38:03;;;;;;;0.43;0.43;;;17.80;84.10;;;;;;5045308;28;20045;-70
2023/08/13 00:40:28;;;;;;;0.00;0.00;;;17.70;84.30;;;;;;5045941;28;20040;-70
2023/08/13 00:42:54;;;;;;;0.00;0.00;;;17.80;84.40;;;;;;5046087;28;20068;-70
2023/08/13 00:45:20;;;;;;;0.38;0.38;;;17.80;84.50;;;;;;5046206;28;20100;-70
2023/08/13 00:47:47;;;;;;;0.00;0.00;;;17.80;84.40;;;;;;5047612;28;20044;-70
2023/08/13 00:50:13;;;;;;;0.00;0.00;;;17.80;84.30;;;;;;5049291;28;20418;-70
2023/08/13 00:52:39;;;;;;;0.00;0.00;;;17.80;84.80;;;;;;5049827;28;20049;-70
2023/08/13 00:55:05;;;;;;;0.00;0.00;;;17.70;84.80;;;;;;5045664;28;20057;-70
2023/08/13 00:57:31;;;;;;;0.00;0.00;;;17.80;85.20;;;;;;5030965;28;20136;-70
2023/08/13 00:59:57;;;;;;;0.10;0.10;;;17.80;85.40;;;;;;5031023;28;20059;-70
2023/08/13 01:02:23;;;;;;;0.15;0.15;;;17.70;85.50;;;;;;5030595;28;20057;-70
2023/08/13 01:04:49;;;;;;;0.00;0.00;;;17.70;85.50;;;;;;5031220;28;20529;-70
2023/08/13 01:07:37;;;;;;;0.10;0.10;;;17.70;85.30;;;;;;5031117;28;20138;-70
2023/08/13 01:10:16;;;;;;;0.47;0.25;;;17.70;85.80;;;;;;5041553;28;20049;-70
2023/08/13 01:13:04;;;;;;;0.00;0.00;;;17.70;86.10;;;;;;5032856;28;20049;-70
2023/08/13 01:15:37;;;;;;;0.00;0.00;;;17.70;86.10;;;;;;5030792;28;20480;-70
2023/08/13 01:18:03;;;;;;;0.00;0.00;;;17.70;86.10;;;;;;5013035;28;20552;-70
2023/08/13 01:20:35;;;;;;;0.00;0.00;;;17.70;85.70;;;;;;5031192;28;20045;-70
2023/08/13 01:23:01;;;;;;;0.10;0.10;;;17.70;85.90;;;;;;5030975;28;20087;-70
2023/08/13 01:25:27;;;;;;;1.48;0.65;;;17.70;85.60;;;;;;5030661;28;20069;-70
2023/08/13 01:28:12;;;;;;;0.00;0.00;;;17.70;85.70;;;;;;5030928;28;20037;-70
2023/08/13 01:30:44;;;;;;;0.00;0.00;;;17.70;86.50;;;;;;5043120;28;20045;-70
2023/08/13 01:33:35;;;;;;;0.00;0.00;;;17.70;86.40;;;;;;5034590;28;20037;-70
2023/08/13 01:36:02;;;;;;;0.00;0.00;;;17.70;86.50;;;;;;5037422;28;20052;-70
2023/08/13 01:38:30;;;;;;;0.00;0.00;;;17.60;86.40;;;;;;5030743;28;20521;-70
2023/08/13 01:41:04;;;;;;;0.00;0.00;;;17.70;86.20;;;;;;5047898;28;20087;-70
2023/08/13 01:43:30;;;;;;;0.00;0.00;;;17.70;86.30;;;;;;5049404;28;20048;-70
2023/08/13 01:45:57;;;;;;;0.00;0.00;;;17.70;86.50;;;;;;5048560;28;20037;-70
2023/08/13 01:48:22;;;;;;;0.00;0.00;;;17.70;86.90;;;;;;5049735;28;20131;-70
2023/08/13 01:50:48;;;;;;;0.00;0.00;;;17.60;86.70;;;;;;5050661;28;20128;-70
2023/08/13 01:53:13;;;;;;;0.00;0.00;;;17.70;86.80;;;;;;5050612;28;20398;-70
2023/08/13 01:55:39;;;;;;;0.00;0.00;;;17.60;86.40;;;;;;5050324;28;20134;-70
2023/08/13 01:58:04;;;;;;;0.00;0.00;;;17.60;86.70;;;;;;5049546;28;20266;-70
2023/08/13 02:00:30;;;;;;;0.00;0.00;;;17.60;86.80;;;;;;5048108;28;20048;-70
2023/08/13 02:02:55;;;;;;;0.13;0.13;;;17.60;86.60;;;;;;5050702;28;20131;-70
2023/08/13 02:05:21;;;;;;;0.00;0.00;;;17.70;86.80;;;;;;5050562;28;20529;-70
2023/08/13 02:07:47;;;;;;;0.00;0.00;;;17.60;87.00;;;;;;5049545;28;20425;-70
2023/08/13 02:10:13;;;;;;;0.80;0.80;;;17.60;86.90;;;;;;5050612;28;20045;-70
2023/08/13 02:12:39;;;;;;;0.25;0.25;;;17.60;86.70;;;;;;5050263;28;20072;-70
2023/08/13 02:15:05;;;;;;;0.00;0.00;;;17.60;87.00;;;;;;5050080;28;20051;-70
2023/08/13 02:17:31;;;;;;;0.00;0.00;;;17.60;87.00;;;;;;5050127;28;20094;-70
2023/08/13 02:19:56;;;;;;;0.10;0.10;;;17.60;87.00;;;;;;5049123;28;20068;-70
2023/08/13 02:22:22;;;;;;;0.00;0.00;;;17.60;87.00;;;;;;5047435;28;20044;-70
2023/08/13 02:24:48;;;;;;;0.00;0.00;;;17.60;86.90;;;;;;5050128;28;20061;-70
2023/08/13 02:27:13;;;;;;;0.00;0.00;;;17.60;87.00;;;;;;5050189;28;20055;-70
2023/08/13 02:29:39;;;;;;;0.00;0.00;;;17.60;86.80;;;;;;5049954;28;20055;-70
2023/08/13 02:32:05;;;;;;;0.00;0.00;;;17.60;86.90;;;;;;5049871;28;20563;-70
2023/08/13 02:34:33;;;;;;;0.00;0.00;;;17.60;86.90;;;;;;5049740;28;20501;-70
2023/08/13 02:37:00;;;;;;;0.00;0.00;;;17.60;86.90;;;;;;5049780;28;20426;-71
2023/08/13 02:39:25;;;;;;;0.00;0.00;;;17.60;87.00;;;;;;5049066;28;20051;-70
2023/08/13 02:41:51;;;;;;;0.00;0.00;;;17.60;87.20;;;;;;5032050;28;20405;-70
2023/08/13 02:44:16;;;;;;;0.00;0.00;;;17.60;87.30;;;;;;5049818;28;20037;-70
2023/08/13 02:46:42;;;;;;;0.00;0.00;;;17.50;87.20;;;;;;5049297;28;20126;-70
2023/08/13 02:49:08;;;;;;;0.00;0.00;;;17.60;87.20;;;;;;5046003;28;20049;-70
2023/08/13 02:51:33;;;;;;;0.00;0.00;;;17.60;87.10;;;;;;5042363;28;20048;-70
2023/08/13 02:53:59;;;;;;;0.00;0.00;;;17.60;87.10;;;;;;5049367;28;20152;-70
2023/08/13 02:56:24;;;;;;;0.00;0.00;;;17.50;87.10;;;;;;5049288;28;20426;-70
2023/08/13 02:58:50;;;;;;;0.08;0.08;;;17.50;87.30;;;;;;5048859;28;20561;-70
2023/08/13 03:01:15;;;;;;;0.00;0.00;;;17.60;87.50;;;;;;5049570;28;20041;-70
2023/08/13 03:03:41;;;;;;;0.00;0.00;;;17.60;87.70;;;;;;5049186;28;20063;-70
2023/08/13 03:06:07;;;;;;;0.00;0.00;;;17.60;87.80;;;;;;5049512;28;20087;-70
2023/08/13 03:08:32;;;;;;;0.00;0.00;;;17.60;88.00;;;;;;5048451;28;20048;-70
2023/08/13 03:10:58;;;;;;;0.00;0.00;;;17.60;88.00;;;;;;5048784;28;20080;-70
2023/08/13 03:13:23;;;;;;;0.00;0.00;;;17.70;88.40;;;;;;5049028;28;20045;-70
2023/08/13 03:15:49;;;;;;;0.00;0.00;;;17.60;88.20;;;;;;5048828;28;20257;-70
2023/08/13 03:18:14;;;;;;;0.00;0.00;;;17.70;88.20;;;;;;5048569;28;20045;-70
2023/08/13 03:20:40;;;;;;;0.00;0.00;;;17.70;88.10;;;;;;5049009;28;20079;-70
2023/08/13 03:23:06;;;;;;;0.00;0.00;;;17.80;87.90;;;;;;5031597;28;20055;-70
2023/08/13 03:25:31;;;;;;;0.03;0.03;;;17.80;88.00;;;;;;5049049;28;20128;-70
2023/08/13 03:27:57;;;;;;;0.43;0.43;;;17.80;88.00;;;;;;5047769;28;20573;-70
2023/08/13 03:30:22;;;;;;;0.00;0.00;;;17.90;87.90;;;;;;5048933;28;20085;-70
2023/08/13 03:32:48;;;;;;;0.00;0.00;;;17.90;88.50;;;;;;5048846;28;20044;-71
2023/08/13 03:35:13;;;;;;;0.00;0.00;;;17.90;88.30;;;;;;5048671;28;20122;-70
2023/08/13 03:37:39;;;;;;;0.00;0.00;;;17.90;88.50;;;;;;5048120;28;20139;-70
2023/08/13 03:40:05;;;;;;;0.00;0.00;;;18.00;88.20;;;;;;5048263;28;20125;-70
2023/08/13 03:42:31;;;;;;;0.00;0.00;;;18.00;88.00;;;;;;5048944;28;20052;-70
2023/08/13 03:44:58;;;;;;;0.00;0.00;;;18.00;88.20;;;;;;5048872;28;20823;-70
2023/08/13 03:47:23;;;;;;;0.00;0.00;;;18.00;87.90;;;;;;5030929;28;20047;-70
2023/08/13 03:49:49;;;;;;;0.00;0.00;;;18.00;87.90;;;;;;5048987;28;20460;-70
2023/08/13 03:52:15;;;;;;;0.00;0.00;;;18.00;88.00;;;;;;5030417;28;20557;-70
2023/08/13 03:54:40;;;;;;;0.10;0.10;;;18.00;87.90;;;;;;5048705;28;20162;-70
2023/08/13 03:57:06;;;;;;;0.00;0.00;;;18.00;87.80;;;;;;5030346;28;20056;-70
2023/08/13 03:59:31;;;;;;;0.00;0.00;;;18.10;87.70;;;;;;5030978;28;20045;-70
2023/08/13 04:01:58;;;;;;;0.00;0.00;;;18.10;87.80;;;;;;5047576;28;20049;-70
2023/08/13 04:04:24;;;;;;;0.00;0.00;;;18.00;87.80;;;;;;5048160;28;20091;-70
2023/08/13 04:06:51;;;;;;;0.00;0.00;;;18.00;87.80;;;;;;5048752;28;20132;-70
2023/08/13 04:09:16;;;;;;;0.00;0.00;;;18.10;87.90;;;;;;5048591;28;20037;-70
2023/08/13 04:11:42;;;;;;;0.00;0.00;;;18.10;87.80;;;;;;5047543;28;20040;-70
2023/08/13 04:14:08;;;;;;;0.00;0.00;;;18.10;87.70;;;;;;5048292;28;20587;-71
2023/08/13 04:16:33;;;;;;;0.00;0.00;;;18.10;87.70;;;;;;5048293;28;20041;-70
2023/08/13 04:18:59;;;;;;;0.00;0.00;;;18.10;87.70;;;;;;5047964;28;20328;-70
2023/08/13 04:21:27;;;;;;;0.00;0.00;;;18.00;87.60;;;;;;5013944;28;20067;-70
2023/08/13 04:23:56;;;;;;;6.65;0.52;;;18.10;87.50;;;;;;5051436;28;20048;-70
2023/08/13 04:26:25;;;;;;;0.00;0.00;;;18.00;87.60;;;;;;5050322;28;20498;-70
2023/08/13 04:28:51;;;;;;;0.00;0.00;;;18.00;87.10;;;;;;5051930;28;20056;-70
2023/08/13 04:31:19;;;;;;;0.00;0.00;;;18.10;87.20;;;;;;5052057;28;20049;-70
2023/08/13 04:33:48;;;;;;;0.00;0.00;;;18.00;87.00;;;;;;5051873;28;20052;-70
2023/08/13 04:36:14;;;;;;;0.03;0.03;;;18.10;87.00;;;;;;5050737;28;20484;-71
2023/08/13 04:38:43;;;;;;;0.00;0.00;;;18.10;87.20;;;;;;5052069;28;20053;-71
2023/08/13 04:41:08;;;;;;;0.00;0.00;;;18.10;87.20;;;;;;5051448;28;20036;-70
2023/08/13 04:43:34;;;;;;;0.00;0.00;;;18.10;87.20;;;;;;5051823;28;20049;-70
2023/08/13 04:45:59;;;;;;;0.00;0.00;;;18.10;87.20;;;;;;5051519;28;20083;-70
2023/08/13 04:49:03;;;;;;;0.08;0.08;;;18.10;87.20;;;;;;5051462;28;20090;-70
2023/08/13 04:51:29;;;;;;;0.00;0.00;;;18.10;87.50;;;;;;4951021;29;20044;-70
2023/08/13 04:54:06;;;;;;;0.10;0.10;;;18.10;87.50;;;;;;4950300;29;20117;-70
2023/08/13 04:56:34;;;;;;;0.00;0.00;;;18.10;87.40;;;;;;4949719;29;20053;-70
2023/08/13 04:59:01;;;;;;;0.00;0.00;;;18.20;87.50;;;;;;4959844;28;20049;-70
2023/08/13 05:01:26;;;;;;;0.00;0.00;;;18.20;87.40;;;;;;5044831;28;20056;-70
2023/08/13 05:03:52;;;;;;;0.10;0.10;;;18.20;87.30;;;;;;5051334;28;20056;-70
2023/08/13 05:06:17;;;;;;;0.00;0.00;;;18.20;87.20;;;;;;5051104;28;20041;-70
2023/08/13 05:08:43;;;;;;;0.00;0.00;;;18.30;87.40;;;;;;5033569;28;20041;-70
2023/08/13 05:11:08;;;;;;;0.20;0.20;;;18.30;87.20;;;;;;5051503;28;20063;-70
2023/08/13 05:13:34;;;;;;;0.00;0.00;;;18.20;87.40;;;;;;5051073;28;20099;-70
2023/08/13 05:15:59;;;;;;;0.25;0.25;;;18.30;87.50;;;;;;5051629;28;20075;-70
2023/08/13 05:18:25;;;;;;;0.55;0.55;;;18.30;87.30;;;;;;5050025;28;20045;-70
2023/08/13 05:20:51;;;;;;;0.00;0.00;;;18.30;87.20;;;;;;5048799;28;20036;-70
2023/08/13 05:23:19;;;;;;;0.00;0.00;;;18.30;87.20;;;;;;5049319;28;20041;-70
2023/08/13 05:25:45;;;;;;;0.00;0.00;;;18.30;87.10;;;;;;5049039;28;20032;-75
2023/08/13 05:28:10;;;;;;;0.00;0.00;;;18.30;87.30;;;;;;5044705;28;20115;-70
2023/08/13 05:30:38;;;;;;;0.00;0.00;;;18.20;86.90;;;;;;5038654;28;20537;-70
2023/08/13 05:33:07;;;;;;;0.00;0.00;;;18.20;87.00;;;;;;5043410;28;20258;-70
2023/08/13 05:35:32;;;;;;;0.00;0.00;;;18.20;87.20;;;;;;5048626;28;20135;-70
2023/08/13 05:38:01;;;;;;;0.00;0.00;;;18.20;87.40;;;;;;5047881;28;20476;-70
2023/08/13 05:40:26;;;;;;;0.00;0.00;;;18.20;87.30;;;;;;5032832;28;20409;-70
2023/08/13 05:42:52;;;;;;;0.10;0.10;;;18.20;87.10;;;;;;5012994;28;20038;-70
2023/08/13 05:45:21;;;;;;;0.00;0.00;;;18.20;87.20;;;;;;5048327;28;20055;-70
2023/08/13 05:47:46;;;;;;;0.00;0.00;;;18.10;87.10;;;;;;5038361;28;20504;-70
2023/08/13 05:50:12;;;;;;;0.20;0.20;;;18.10;87.00;;;;;;5038763;28;20486;-66
2023/08/13 05:52:37;;;;;;;0.00;0.00;;;18.10;87.00;;;;;;5030601;28;20514;-67
2023/08/13 05:55:04;;;;;;;0.00;0.00;;;18.10;87.10;;;;;;5001688;22;20050;-67
2023/08/13 05:57:29;;;;;;;0.00;0.00;;;18.20;86.90;;;;;;5038573;28;20087;-67
2023/08/13 05:59:55;;;;;;;0.00;0.00;;;18.20;87.10;;;;;;5031002;28;20172;-67
2023/08/13 06:02:20;;;;;;;0.10;0.10;;;18.20;87.00;;;;;;5030244;28;20525;-67
2023/08/13 06:04:46;;;;;;;0.00;0.00;;;18.30;86.90;;;;;;5036553;28;20460;-68
2023/08/13 06:07:12;;;;;;;0.00;0.00;;;18.30;86.80;;;;;;5036522;28;20494;-68
2023/08/13 06:09:46;;;;;;;0.00;0.00;;;18.30;86.80;;;;;;5016199;28;20057;-68
2023/08/13 06:12:11;;;;;;;0.00;0.00;;;18.40;86.60;;;;;;5036426;28;20053;-68
2023/08/13 06:14:37;;;;;;;0.00;0.00;;;18.40;86.30;;;;;;5038645;28;20098;-67
2023/08/13 06:17:24;;;;;;;0.08;0.08;;;18.40;86.40;;;;;;5037840;28;20103;-68
2023/08/13 06:19:49;;;;;;;0.00;0.00;;;18.40;86.20;;;;;;5035611;28;20041;-70
2023/08/13 06:22:15;;;;;;;0.00;0.00;;;18.50;86.60;;;;;;5036471;28;20772;-71
2023/08/13 06:24:41;;;;;;;0.17;0.17;;;18.60;86.50;;;;;;5035016;28;20043;-70
2023/08/13 06:27:06;;;;;;;0.00;0.00;;;18.70;86.10;;;;;;5016020;28;20132;-71
2023/08/13 06:29:32;;;;;;;0.75;0.52;;;18.90;85.90;;;;;;5036947;28;20041;-72
2023/08/13 06:31:58;;;;;;;0.10;0.10;;;19.00;85.50;;;;;;5031698;28;20034;-71
2023/08/13 06:34:23;;;;;;;0.00;0.00;;;19.10;85.10;;;;;;5031482;28;20049;-71
2023/08/13 06:36:49;;;;;;;0.00;0.00;;;19.10;85.10;;;;;;5035065;28;20036;-71
2023/08/13 06:39:14;;;;;;;0.00;0.00;;;19.10;85.00;;;;;;5038281;28;20044;-71
2023/08/13 06:41:40;;;;;;;0.00;0.00;;;19.20;84.90;;;;;;5037650;28;20044;-69
2023/08/13 06:44:06;;;;;;;0.00;0.00;;;19.20;84.40;;;;;;5036964;28;20081;-68
2023/08/13 06:46:32;;;;;;;0.00;0.00;;;19.10;84.40;;;;;;5012087;28;20042;-69
2023/08/13 06:49:03;;;;;;;0.00;0.00;;;19.10;84.50;;;;;;5036406;28;20044;-69
2023/08/13 06:51:29;;;;;;;0.10;0.10;;;19.00;84.90;;;;;;5032787;28;20195;-69
2023/08/13 06:53:54;;;;;;;0.00;0.00;;;19.00;84.90;;;;;;5017206;28;20069;-72
2023/08/13 06:56:20;;;;;;;0.00;0.00;;;19.00;85.10;;;;;;5036112;28;20057;-73
2023/08/13 06:58:45;;;;;;;0.00;0.00;;;19.00;85.20;;;;;;5036938;28;20064;-73
2023/08/13 07:01:12;;;;;;;0.30;0.30;;;19.00;85.00;;;;;;5036089;28;20048;-71
2023/08/13 07:03:38;;;;;;;2.40;0.85;;;19.00;85.40;;;;;;5042369;28;20052;-64
2023/08/13 07:06:04;;;;;;;0.00;0.00;;;19.00;85.80;;;;;;5038771;28;20755;-64
2023/08/13 07:08:30;;;;;;;0.03;0.03;;;19.10;85.70;;;;;;5042739;28;20049;-63
2023/08/13 07:10:55;;;;;;;0.00;0.00;;;19.10;85.30;;;;;;5043282;28;20044;-63
2023/08/13 07:13:21;;;;;;;0.08;0.08;;;19.20;85.00;;;;;;5039123;28;20053;-65
2023/08/13 07:15:47;;;;;;;0.00;0.00;;;19.20;84.70;;;;;;5034184;28;20049;-63
2023/08/13 07:18:12;;;;;;;0.30;0.30;;;19.30;84.70;;;;;;5028942;28;20038;-74
2023/08/13 07:20:38;;;;;;;0.00;0.00;;;19.30;84.30;;;;;;5033192;28;20413;-72
2023/08/13 07:23:04;;;;;;;0.00;0.00;;;19.30;84.20;;;;;;5045027;28;20832;-64
2023/08/13 07:25:29;;;;;;;0.10;0.10;;;19.20;84.00;;;;;;5045391;28;20045;-66
2023/08/13 07:27:55;;;;;;;0.00;0.00;;;19.20;83.80;;;;;;5043399;28;20390;-65
2023/08/13 07:30:21;;;;;;;0.00;0.00;;;19.20;83.80;;;;;;5049365;28;20645;-65
2023/08/13 07:32:46;;;;;;;0.00;0.00;;;19.20;83.70;;;;;;5044047;28;20064;-66
2023/08/13 07:35:12;;;;;;;0.00;0.00;;;19.20;83.30;;;;;;5048170;28;20063;-67
2023/08/13 07:37:38;;;;;;;0.00;0.00;;;19.20;83.40;;;;;;5049217;28;20049;-66
2023/08/13 07:40:12;;;;;;;0.00;0.00;;;19.20;83.60;;;;;;5049468;28;20048;-67
2023/08/13 07:42:39;;;;;;;0.00;0.00;;;19.30;83.70;;;;;;5048775;28;20040;-66
2023/08/13 07:45:05;;;;;;;0.10;0.10;;;19.30;83.80;;;;;;5041578;28;20072;-67
2023/08/13 07:47:32;;;;;;;0.00;0.00;;;19.30;83.70;;;;;;5040128;28;20134;-66
2023/08/13 07:49:57;;;;;;;0.00;0.00;;;19.40;83.80;;;;;;5049001;28;20047;-67
2023/08/13 07:52:23;;;;;;;0.13;0.13;;;19.40;83.70;;;;;;5040498;28;20848;-66
2023/08/13 07:54:48;;;;;;;0.10;0.10;;;19.40;83.50;;;;;;5040427;28;20076;-68
2023/08/13 07:57:14;;;;;;;0.00;0.00;;;19.50;83.60;;;;;;5050558;28;20044;-67
2023/08/13 07:59:40;;;;;;;0.28;0.20;;;19.50;83.80;;;;;;5051618;28;20053;-67
2023/08/13 08:02:05;;;;;;;0.10;0.10;;;19.60;83.70;;;;;;5052335;28;20151;-67
2023/08/13 08:04:31;;;;;;;0.00;0.00;;;19.60;83.30;;;;;;5033836;28;20057;-66
2023/08/13 08:06:57;;;;;;;0.00;0.00;;;19.60;83.40;;;;;;5038891;28;20043;-66
2023/08/13 08:09:23;;;;;;;0.60;0.60;;;19.70;83.70;;;;;;5042988;28;20041;-66
2023/08/13 08:11:49;;;;;;;0.10;0.10;;;19.70;83.30;;;;;;5032933;28;20045;-66
2023/08/13 08:14:14;;;;;;;0.10;0.10;;;19.80;83.10;;;;;;5034241;28;20045;-66
2023/08/13 08:16:40;;;;;;;0.00;0.00;;;19.80;82.60;;;;;;5051782;28;20048;-68
2023/08/13 08:19:06;;;;;;;0.00;0.00;;;19.90;82.50;;;;;;5048380;28;20414;-66
2023/08/13 08:21:31;;;;;;;0.00;0.00;;;19.90;82.70;;;;;;5052363;28;20412;-66
2023/08/13 08:23:57;;;;;;;0.00;0.00;;;20.00;82.70;;;;;;5051182;28;20032;-66
2023/08/13 08:26:23;;;;;;;0.00;0.00;;;20.10;82.80;;;;;;5051183;28;20155;-66
2023/08/13 08:28:49;;;;;;;0.00;0.00;;;20.10;81.90;;;;;;5051139;28;20079;-67
2023/08/13 08:31:14;;;;;;;0.00;0.00;;;20.10;81.70;;;;;;5041692;28;20036;-66
2023/08/13 08:33:40;;;;;;;0.17;0.17;;;20.10;81.30;;;;;;5052659;28;20106;-67
2023/08/13 08:36:06;;;;;;;0.00;0.00;;;20.10;81.50;;;;;;5036725;28;20095;-67
2023/08/13 08:38:31;;;;;;;0.10;0.10;;;20.10;81.10;;;;;;5032323;28;20520;-66
2023/08/13 08:40:59;;;;;;;0.00;0.00;;;20.20;81.30;;;;;;5032619;28;20049;-67
2023/08/13 08:43:30;;;;;;;0.00;0.00;;;20.20;81.10;;;;;;5032422;28;20045;-67
2023/08/13 08:45:59;;;;;;;0.20;0.20;;;20.20;80.60;;;;;;5032251;28;20092;-67
2023/08/13 08:48:27;;;;;;;0.00;0.00;;;20.20;79.70;;;;;;5048798;28;20520;-67
2023/08/13 08:50:54;;;;;;;0.17;0.08;;;20.20;80.40;;;;;;5052602;28;20057;-66
2023/08/13 08:53:20;;;;;;;0.03;0.03;;;20.20;80.70;;;;;;5052124;28;20520;-66
2023/08/13 08:55:48;;;;;;;0.00;0.00;;;20.30;80.70;;;;;;5044074;28;20049;-66
2023/08/13 08:58:14;;;;;;;0.00;0.00;;;20.40;80.80;;;;;;5049118;28;20056;-66
2023/08/13 09:00:40;;;;;;;0.00;0.00;;;20.50;80.90;;;;;;5051894;28;20045;-66
2023/08/13 09:03:06;;;;;;;0.00;0.00;;;20.60;80.50;;;;;;5042688;28;20033;-67
2023/08/13 09:05:33;;;;;;;0.45;0.45;;;20.60;80.20;;;;;;5027020;28;20170;-66
2023/08/13 09:07:58;;;;;;;0.00;0.00;;;20.50;80.30;;;;;;5044918;28;20037;-66
2023/08/13 09:10:24;;;;;;;0.32;0.32;;;20.60;80.30;;;;;;5041388;28;20049;-66
2023/08/13 09:12:52;;;;;;;0.00;0.00;;;20.70;80.20;;;;;;5051898;28;20052;-66
2023/08/13 09:15:18;;;;;;;0.00;0.00;;;20.70;79.70;;;;;;5051611;28;20460;-66
2023/08/13 09:17:43;;;;;;;0.00;0.00;;;20.90;79.80;;;;;;5042663;28;20052;-67
2023/08/13 09:20:16;;;;;;;0.00;0.00;;;20.90;79.20;;;;;;5045177;28;20405;-66
2023/08/13 09:22:47;;;;;;;0.00;0.00;;;20.90;78.90;;;;;;5030467;28;20587;-67
2023/08/13 09:25:14;;;;;;;0.00;0.00;;;20.90;79.30;;;;;;5051603;28;20528;-66
2023/08/13 09:27:40;;;;;;;0.00;0.00;;;20.70;77.80;;;;;;5050519;28;20084;-66
2023/08/13 09:30:11;;;;;;;0.00;0.00;;;20.80;78.80;;;;;;5046037;28;20084;-66
2023/08/13 09:32:36;;;;;;;0.00;0.00;;;20.70;79.10;;;;;;5031424;28;20119;-66
2023/08/13 09:35:03;;;;;;;0.00;0.00;;;20.80;79.70;;;;;;5042160;28;20094;-66
2023/08/13 09:37:29;;;;;;;0.00;0.00;;;20.90;79.70;;;;;;5051177;28;20405;-66
2023/08/13 09:39:55;;;;;;;0.00;0.00;;;21.00;79.00;;;;;;5051633;28;20037;-66
2023/08/13 09:42:25;;;;;;;0.00;0.00;;;21.00;79.20;;;;;;5051317;28;20497;-66
2023/08/13 09:44:51;;;;;;;0.00;0.00;;;21.00;79.40;;;;;;5051197;28;20051;-66
2023/08/13 09:47:22;;;;;;;0.00;0.00;;;21.00;79.50;;;;;;5039286;28;20050;-66
2023/08/13 09:49:48;;;;;;;0.00;0.00;;;21.10;79.40;;;;;;5031457;28;20053;-66
2023/08/13 09:52:20;;;;;;;0.00;0.00;;;21.20;79.40;;;;;;5031046;28;20064;-66
2023/08/13 09:54:50;;;;;;;;;;;21.30;78.40;;;;;;5031671;28;20132;-66
2023/08/13 09:57:16;;;;;;;0.00;0.00;;;21.30;78.00;;;;;;5030773;28;19928;-66
2023/08/13 09:59:43;;;;;;;0.00;0.00;;;21.20;78.40;;;;;;5017001;28;20048;-66
2023/08/13 10:02:11;;;;;;;0.00;0.00;;;21.10;78.30;;;;;;5039025;28;20512;-66
2023/08/13 10:04:38;;;;;;;2.55;1.45;;;21.00;78.00;;;;;;5033270;28;20053;-66
2023/08/13 10:07:05;;;;;;;0.00;0.00;;;20.90;78.40;;;;;;5047099;23;20077;-66
2023/08/13 10:09:32;;;;;;;1.60;0.73;;;20.90;78.70;;;;;;5029841;28;20056;-66
2023/08/13 10:11:58;;;;;;;0.10;0.10;;;21.00;78.80;;;;;;5028371;28;20414;-66
2023/08/13 10:14:24;;;;;;;0.10;0.10;;;20.90;78.40;;;;;;5028535;28;20092;-66
2023/08/13 10:16:50;;;;;;;0.10;0.10;;;20.90;77.90;;;;;;5013360;28;20128;-66
2023/08/13 10:19:17;;;;;;;0.00;0.00;;;20.80;77.80;;;;;;5012320;28;20187;-66
2023/08/13 10:21:47;;;;;;;0.00;0.00;;;20.90;78.50;;;;;;5011367;28;20128;-66
2023/08/13 10:24:13;;;;;;;0.85;0.75;;;21.00;77.80;;;;;;5030711;28;20046;-66
2023/08/13 10:26:41;;;;;;;0.00;0.00;;;21.10;78.20;;;;;;5030489;28;20044;-66
2023/08/13 10:29:18;;;;;;;0.10;0.10;;;21.20;77.80;;;;;;5030239;28;20057;-66
2023/08/13 10:31:59;;;;;;;0.15;0.15;;;21.20;77.20;;;;;;5029749;28;20046;-66
2023/08/13 10:34:50;;;;;;;0.00;0.00;;;21.40;76.50;;;;;;5030432;28;20053;-67
2023/08/13 10:37:20;;;;;;;0.35;0.35;;;21.50;77.10;;;;;;5030306;28;20103;-66
2023/08/13 10:40:05;;;;;;;0.03;0.03;;;21.60;76.00;;;;;;5030271;28;20470;-66
2023/08/13 10:42:46;;;;;;;0.00;0.00;;;21.80;76.20;;;;;;5029798;28;20045;-66
2023/08/13 10:45:14;;;;;;;0.00;0.00;;;21.70;75.40;;;;;;5030474;28;20446;-66
2023/08/13 10:47:44;;;;;;;0.00;0.00;;;21.70;75.40;;;;;;5030285;28;20123;-66
2023/08/13 10:50:26;;;;;;;1.15;1.00;;;21.60;75.40;;;;;;5029733;28;20058;-66
2023/08/13 10:53:21;;;;;;;0.05;0.05;;;21.50;74.70;;;;;;5030074;28;20045;-66
2023/08/13 10:55:52;;;;;;;0.15;0.15;;;21.40;75.80;;;;;;5029610;28;20048;-66
2023/08/13 10:58:26;;;;;;;0.00;0.00;;;21.30;75.50;;;;;;5029825;28;20049;-66
2023/08/13 11:00:51;;;;;;;0.00;0.00;;;21.20;75.80;;;;;;5029605;28;20128;-66
2023/08/13 11:03:33;;;;;;;1.35;0.68;;;21.10;76.10;;;;;;5029021;28;20175;-66
2023/08/13 11:06:01;;;;;;;0.00;0.00;;;21.10;76.00;;;;;;5029494;28;20053;-65
2023/08/13 11:08:27;;;;;;;0.00;0.00;;;21.00;76.00;;;;;;5029585;28;20057;-66
2023/08/13 11:10:53;;;;;;;0.00;0.00;;;21.00;75.70;;;;;;5029617;28;20094;-66
2023/08/13 11:13:20;;;;;;;0.00;0.00;;;20.90;75.50;;;;;;5029491;28;20045;-66
2023/08/13 11:15:53;;;;;;;0.00;0.00;;;20.70;75.20;;;;;;5011877;28;20828;-66
2023/08/13 11:18:20;;;;;;;0.00;0.00;;;20.70;76.50;;;;;;5029820;28;20460;-67
2023/08/13 11:20:46;;;;;;;0.00;0.00;;;20.60;77.40;;;;;;5029167;28;20846;-66
2023/08/13 11:23:16;;;;;;;0.00;0.00;;;20.50;78.30;;;;;;5029053;28;20053;-66
2023/08/13 11:25:44;;;;;;;0.00;0.00;;;20.50;79.10;;;;;;5028927;28;20567;-66
2023/08/13 11:28:10;;;;;;;0.00;0.00;;;20.40;79.40;;;;;;5024058;28;20037;-69
2023/08/13 11:30:42;;;;;;;0.30;0.20;;;20.40;79.90;;;;;;5026810;28;20103;-66
2023/08/13 11:33:08;;;;;;;0.00;0.00;;;20.50;80.30;;;;;;5014399;28;20041;-66
2023/08/13 11:35:34;;;;;;;0.00;0.00;;;20.50;80.50;;;;;;5030668;28;20482;-66
2023/08/13 11:38:00;;;;;;;0.00;0.00;;;20.50;79.50;;;;;;5033015;28;20049;-65
2023/08/13 11:40:26;;;;;;;0.00;0.00;;;20.50;79.40;;;;;;5025949;28;20183;-69
2023/08/13 11:42:56;;;;;;;0.00;0.00;;;20.60;79.50;;;;;;5028772;28;20592;-66
2023/08/13 11:45:26;;;;;;;0.00;0.00;;;20.70;79.10;;;;;;5028587;28;20128;-66
2023/08/13 11:48:06;;;;;;;0.00;0.00;;;20.80;78.20;;;;;;5029352;28;20056;-66
2023/08/13 11:50:32;;;;;;;0.00;0.00;;;21.00;77.70;;;;;;5025599;28;20532;-65
2023/08/13 11:53:13;;;;;;;0.00;0.00;;;21.00;77.40;;;;;;5019856;28;20064;-65
2023/08/13 11:55:44;;;;;;;0.00;0.00;;;21.10;77.30;;;;;;5015551;28;20049;-65
2023/08/13 11:58:10;;;;;;;0.00;0.00;;;21.10;76.90;;;;;;5025675;28;20045;-65
2023/08/13 12:00:36;;;;;;;0.00;0.00;;;21.20;76.60;;;;;;5011209;28;20079;-65
2023/08/13 12:03:02;;;;;;;0.40;0.40;;;21.20;75.90;;;;;;5021858;28;20557;-63
2023/08/13 12:05:33;;;;;;;0.00;0.00;;;21.40;76.10;;;;;;5026222;28;20417;-64
2023/08/13 12:08:00;;;;;;;0.00;0.00;;;21.50;76.10;;;;;;5023654;28;20088;-65
2023/08/13 12:10:26;;;;;;;0.00;0.00;;;21.60;75.00;;;;;;5027141;28;20050;-65
2023/08/13 12:12:52;;;;;;;0.00;0.00;;;21.70;75.10;;;;;;5024104;28;20068;-65
2023/08/13 12:15:24;;;;;;;0.00;0.00;;;21.90;74.80;;;;;;5027063;28;20100;-65
2023/08/13 12:17:54;;;;;;;0.00;0.00;;;22.00;74.30;;;;;;5009770;28;20037;-66
2023/08/13 12:20:19;;;;;;;0.00;0.00;;;22.10;73.60;;;;;;5026237;28;20089;-65
2023/08/13 12:22:46;;;;;;;0.05;0.05;;;22.20;74.00;;;;;;5027399;28;20091;-66
2023/08/13 12:25:11;;;;;;;0.00;0.00;;;22.20;72.20;;;;;;5027572;28;20073;-65
2023/08/13 12:27:37;;;;;;;0.00;0.00;;;22.30;71.00;;;;;;5027549;28;20065;-63
2023/08/13 12:30:04;;;;;;;0.00;0.00;;;22.40;72.00;;;;;;5028237;28;20053;-64
2023/08/13 12:32:30;;;;;;;0.00;0.00;;;22.50;71.20;;;;;;5020054;28;20049;-65
2023/08/13 12:34:55;;;;;;;5.07;1.17;;;22.50;70.50;;;;;;5014696;28;20056;-65
2023/08/13 12:37:21;;;;;;;1.08;0.80;;;22.50;70.60;;;;;;5017662;28;20079;-65
2023/08/13 12:39:47;;;;;;;0.00;0.00;;;22.50;71.50;;;;;;5028368;28;20109;-65
2023/08/13 12:42:13;;;;;;;0.00;0.00;;;22.60;71.00;;;;;;5028330;28;20064;-65
2023/08/13 12:44:39;;;;;;;0.00;0.00;;;22.60;69.00;;;;;;5030937;28;20041;-65
2023/08/13 12:47:04;;;;;;;0.00;0.00;;;22.80;70.80;;;;;;5034464;28;20025;-65
2023/08/13 12:49:30;;;;;;;0.00;0.00;;;23.00;70.70;;;;;;5030942;28;20045;-65